createdAt,value
2023-05-16T00:00:27.028Z,74.37
2023-05-16T00:05:34.710Z,74.42
2023-05-16T00:10:41.855Z,74.38
2023-05-16T00:15:48.922Z,74.53
2023-05-16T00:20:56.302Z,74.67
2023-05-16T00:26:03.821Z,74.49
2023-05-16T00:31:11.025Z,74.55
2023-05-16T00:36:18.035Z,74.50
2023-05-16T00:41:27.485Z,74.56
2023-05-16T00:46:34.514Z,74.52
2023-05-16T00:51:41.792Z,74.66
2023-05-16T00:56:48.991Z,74.63
2023-05-16T01:01:56.950Z,74.63
2023-05-16T01:07:04.283Z,74.67
2023-05-16T01:12:22.844Z,74.71
2023-05-16T01:17:38.137Z,74.81
2023-05-16T01:23:15.344Z,74.74
2023-05-16T01:28:24.260Z,74.76
2023-05-16T01:33:31.401Z,74.83
2023-05-16T01:38:45.840Z,74.81
2023-05-16T01:43:58.116Z,74.96
2023-05-16T01:49:17.375Z,75.02
2023-05-16T01:54:28.068Z,75.20
2023-05-16T01:59:35.790Z,75.09
2023-05-16T02:04:42.959Z,75.10
2023-05-16T02:09:50.077Z,75.27
2023-05-16T02:14:57.138Z,75.34
2023-05-16T02:20:07.250Z,75.33
2023-05-16T02:25:15.600Z,75.27
2023-05-16T02:30:22.691Z,75.18
2023-05-16T02:35:29.898Z,75.18
2023-05-16T02:40:36.999Z,75.26
2023-05-16T02:45:44.032Z,75.42
2023-05-16T02:50:52.268Z,75.42
2023-05-16T02:55:59.472Z,75.50
2023-05-16T03:01:06.846Z,75.48
2023-05-16T03:06:13.977Z,75.46
2023-05-16T03:11:21.933Z,75.30
2023-05-16T03:16:29.395Z,75.33
2023-05-16T03:21:36.470Z,75.42
2023-05-16T03:26:43.444Z,75.47
2023-05-16T03:31:51.430Z,75.50
2023-05-16T03:36:58.962Z,75.53
2023-05-16T03:42:07.686Z,75.46
2023-05-16T03:47:15.098Z,75.50
2023-05-16T03:52:22.383Z,75.73
2023-05-16T03:57:29.632Z,75.71
2023-05-16T04:02:36.898Z,75.62
2023-05-16T04:07:45.038Z,75.58
2023-05-16T04:12:52.858Z,75.63
2023-05-16T04:17:58.356Z,75.64
2023-05-16T04:23:05.825Z,75.96
2023-05-16T04:28:12.901Z,75.88
2023-05-16T04:33:20.298Z,75.50
2023-05-16T04:38:27.457Z,75.40
2023-05-16T04:43:34.622Z,75.32
2023-05-16T04:48:41.719Z,75.34
2023-05-16T04:53:48.998Z,75.32
2023-05-16T04:58:56.583Z,75.43
2023-05-16T05:04:03.883Z,75.55
2023-05-16T05:09:11.220Z,75.45
2023-05-16T05:14:18.269Z,75.51
2023-05-16T05:19:25.535Z,75.57
2023-05-16T05:24:32.815Z,75.49
2023-05-16T05:29:40.426Z,75.28
2023-05-16T05:34:47.902Z,75.17
2023-05-16T05:39:55.301Z,75.35
2023-05-16T05:45:02.495Z,75.13
2023-05-16T05:50:13.025Z,74.80
2023-05-16T05:55:20.125Z,74.60
2023-05-16T06:00:29.447Z,74.59
2023-05-16T06:05:36.739Z,74.51
2023-05-16T06:10:43.878Z,74.58
2023-05-16T06:15:54.420Z,74.44
2023-05-16T06:21:01.469Z,74.03
2023-05-16T06:26:09.183Z,73.77
2023-05-16T06:31:16.360Z,73.56
2023-05-16T06:36:23.451Z,73.43
2023-05-16T06:41:30.624Z,73.48
2023-05-16T06:46:38.487Z,73.46
2023-05-16T06:51:45.912Z,73.50
2023-05-16T06:56:55.873Z,73.50
2023-05-16T07:02:03.128Z,73.56
2023-05-16T07:07:11.562Z,73.68
2023-05-16T07:12:24.742Z,73.53
2023-05-16T07:17:33.616Z,73.46
2023-05-16T07:22:40.876Z,73.53
2023-05-16T07:27:48.148Z,73.52
2023-05-16T07:32:55.518Z,73.58
2023-05-16T07:38:03.302Z,73.43
2023-05-16T07:43:13.085Z,73.41
2023-05-16T07:48:20.290Z,73.54
2023-05-16T07:53:27.725Z,73.34
2023-05-16T07:58:35.212Z,73.18
2023-05-16T08:03:42.436Z,73.05
2023-05-16T08:08:49.598Z,72.97
2023-05-16T08:13:58.476Z,72.93
2023-05-16T08:19:06.037Z,72.88
2023-05-16T08:24:13.397Z,72.86
2023-05-16T08:29:20.702Z,73.34
2023-05-16T08:34:27.874Z,73.80
2023-05-16T08:39:35.184Z,73.26
2023-05-16T08:44:42.402Z,72.36
2023-05-16T08:49:52.687Z,71.68
2023-05-16T08:55:10.929Z,71.52
2023-05-16T09:00:20.814Z,71.53
2023-05-16T09:05:29.089Z,71.46
2023-05-16T09:10:36.471Z,71.21
2023-05-16T09:15:43.708Z,70.94
2023-05-16T09:20:53.644Z,70.73
2023-05-16T09:26:02.032Z,70.36
2023-05-16T09:31:23.224Z,69.99
2023-05-16T09:36:30.697Z,70.03
2023-05-16T09:41:40.485Z,69.98
2023-05-16T09:46:47.868Z,69.61
2023-05-16T09:51:53.662Z,69.04
2023-05-16T09:57:02.960Z,68.79
2023-05-16T10:02:12.424Z,68.70
2023-05-16T10:07:20.846Z,68.12
2023-05-16T10:12:31.930Z,68.01
2023-05-16T10:17:43.507Z,67.80
2023-05-16T10:22:54.171Z,67.55
2023-05-16T10:28:02.667Z,67.08
2023-05-16T10:33:10.354Z,66.71
2023-05-16T10:38:19.439Z,66.91
2023-05-16T10:43:31.246Z,66.57
2023-05-16T10:48:40.081Z,66.19
2023-05-16T10:53:48.259Z,65.84
2023-05-16T10:58:57.065Z,65.74
2023-05-16T11:04:08.706Z,65.38
2023-05-16T11:09:29.419Z,65.06
2023-05-16T11:14:43.751Z,64.77
2023-05-16T11:19:52.384Z,64.54
2023-05-16T11:25:01.593Z,64.27
2023-05-16T11:30:17.795Z,64.06
2023-05-16T11:35:26.388Z,63.78
2023-05-16T11:40:35.181Z,63.90
2023-05-16T11:45:42.926Z,63.72
2023-05-16T11:50:50.698Z,63.37
2023-05-16T11:56:00.465Z,63.21
2023-05-16T12:01:08.648Z,62.89
2023-05-16T12:06:16.737Z,62.82
2023-05-16T12:11:26.069Z,62.78
2023-05-16T12:16:33.957Z,62.55
2023-05-16T12:21:41.576Z,62.36
2023-05-16T12:26:47.621Z,62.11
2023-05-16T12:31:56.161Z,62.18
2023-05-16T12:37:03.276Z,62.05
2023-05-16T12:42:13.711Z,61.88
2023-05-16T12:47:21.629Z,61.94
2023-05-16T12:52:32.046Z,61.90
2023-05-16T12:57:39.388Z,61.82
2023-05-16T13:02:45.092Z,61.75
2023-05-16T13:07:52.881Z,61.29
2023-05-16T13:13:00.511Z,61.27
2023-05-16T13:18:08.071Z,61.09
2023-05-16T13:23:13.942Z,61.30
2023-05-16T13:28:21.398Z,61.48
2023-05-16T13:33:28.659Z,61.32
2023-05-16T13:38:36.390Z,61.44
2023-05-16T13:43:44.533Z,61.50
2023-05-16T13:48:51.903Z,61.46
2023-05-16T13:54:01.422Z,61.43
2023-05-16T13:59:09.717Z,61.38
2023-05-16T14:04:18.814Z,61.04
2023-05-16T14:09:25.948Z,61.01
2023-05-16T14:14:33.283Z,60.99
2023-05-16T14:19:40.471Z,60.92
2023-05-16T14:24:47.684Z,60.95
2023-05-16T14:29:54.823Z,60.78
2023-05-16T14:35:01.991Z,60.63
2023-05-16T14:40:10.978Z,60.29
2023-05-16T14:45:18.206Z,60.11
2023-05-16T14:50:25.305Z,59.93
2023-05-16T14:55:32.490Z,59.87
2023-05-16T15:00:39.704Z,59.83
2023-05-16T15:05:47.135Z,59.71
2023-05-16T15:10:54.340Z,59.72
2023-05-16T15:16:01.867Z,59.74
2023-05-16T15:21:09.399Z,59.56
2023-05-16T15:26:16.550Z,59.58
2023-05-16T15:31:23.840Z,59.66
2023-05-16T15:36:31.236Z,59.65
2023-05-16T15:42:05.330Z,59.56
2023-05-16T15:47:09.538Z,59.69
2023-05-16T15:52:16.765Z,59.84
2023-05-16T15:57:24.601Z,59.63
2023-05-16T16:02:32.361Z,59.62
2023-05-16T16:07:39.564Z,59.84
2023-05-16T16:12:59.163Z,59.85
2023-05-16T16:18:07.073Z,59.87
2023-05-16T16:23:14.181Z,59.81
2023-05-16T16:28:22.557Z,59.90
2023-05-16T16:33:31.005Z,59.91
2023-05-16T16:38:38.093Z,60.20
2023-05-16T16:43:45.425Z,60.10
2023-05-16T16:48:53.257Z,60.09
2023-05-16T16:54:00.341Z,60.21
2023-05-16T16:59:07.881Z,60.28
2023-05-16T17:04:15.089Z,60.40
2023-05-16T17:09:25.448Z,60.55
2023-05-16T17:14:35.243Z,60.70
2023-05-16T17:19:42.404Z,60.79
2023-05-16T17:24:49.661Z,60.83
2023-05-16T17:29:57.415Z,60.93
2023-05-16T17:35:04.256Z,60.88
2023-05-16T17:40:17.254Z,60.88
2023-05-16T17:45:24.666Z,60.96
2023-05-16T17:50:32.805Z,60.89
2023-05-16T17:55:39.992Z,61.04
2023-05-16T18:00:48.714Z,61.26
2023-05-16T18:05:56.162Z,61.21
2023-05-16T18:11:03.314Z,61.52
2023-05-16T18:16:12.478Z,61.55
2023-05-16T18:21:20.100Z,61.39
2023-05-16T18:26:27.438Z,61.35
2023-05-16T18:31:36.965Z,61.47
2023-05-16T18:36:44.197Z,61.68
2023-05-16T18:41:51.333Z,61.68
2023-05-16T18:46:58.982Z,61.71
2023-05-16T18:52:07.462Z,61.85
2023-05-16T18:57:14.669Z,62.03
2023-05-16T19:02:30.197Z,62.15
2023-05-16T19:07:41.490Z,62.19
2023-05-16T19:12:49.329Z,62.28
2023-05-16T19:17:56.666Z,62.41
2023-05-16T19:23:04.522Z,62.57
2023-05-16T19:28:10.316Z,62.65
2023-05-16T19:33:20.780Z,62.68
2023-05-16T19:38:28.267Z,62.75
2023-05-16T19:43:35.767Z,62.89
2023-05-16T19:48:49.242Z,62.89
2023-05-16T19:53:57.874Z,62.98
2023-05-16T19:59:10.258Z,63.06
2023-05-16T20:04:18.123Z,63.15
2023-05-16T20:09:28.867Z,63.20
2023-05-16T20:14:37.752Z,63.22
2023-05-16T20:19:45.730Z,63.25
2023-05-16T20:24:54.513Z,63.33
2023-05-16T20:30:07.676Z,63.47
2023-05-16T20:35:18.297Z,63.63
2023-05-16T20:40:25.611Z,63.51
2023-05-16T20:45:33.353Z,63.50
2023-05-16T20:50:41.040Z,63.74
2023-05-16T20:55:48.108Z,63.72
2023-05-16T21:00:58.335Z,63.64
2023-05-16T21:06:05.756Z,63.86
2023-05-16T21:11:13.055Z,63.91
2023-05-16T21:16:20.150Z,63.90
2023-05-16T21:21:27.249Z,63.92
2023-05-16T21:26:35.802Z,64.05
2023-05-16T21:31:42.985Z,63.97
2023-05-16T21:36:50.302Z,64.22
2023-05-16T21:41:57.353Z,64.20
2023-05-16T21:47:04.425Z,64.42
2023-05-16T21:52:11.676Z,64.33
2023-05-16T21:57:18.939Z,64.43
2023-05-16T22:02:26.126Z,64.49
2023-05-16T22:07:33.366Z,64.58
2023-05-16T22:12:40.941Z,64.64
2023-05-16T22:17:48.314Z,64.66
2023-05-16T22:22:55.619Z,64.87
2023-05-16T22:28:02.669Z,64.92
2023-05-16T22:33:10.009Z,64.87
2023-05-16T22:38:17.336Z,65.05
2023-05-16T22:43:24.504Z,65.20
2023-05-16T22:48:31.828Z,65.37
2023-05-16T22:53:39.061Z,65.31
2023-05-16T22:58:46.206Z,65.32
2023-05-16T23:03:53.283Z,65.47
2023-05-16T23:09:02.452Z,65.55
2023-05-16T23:14:09.688Z,65.48
2023-05-16T23:19:17.204Z,65.70
2023-05-16T23:24:25.353Z,65.72
2023-05-16T23:29:32.445Z,66.00
2023-05-16T23:34:39.634Z,66.12
2023-05-16T23:39:46.711Z,66.17
2023-05-16T23:44:53.838Z,66.20
2023-05-16T23:50:00.890Z,66.23
2023-05-16T23:55:09.234Z,66.35
